Time;durP1;ratioP1;P1;durP2;ratioP2;P2;SDS_P1;SDS_P2;PMS_P1;PMS_P2;Temp;Humidity;BMP_temperature;BMP_pressure;BME280_temperature;BME280_humidity;BME280_pressure;Samples;Min_cycle;Max_cycle;Signal;HPM_P1;HPM_P2
2024/03/23 00:01:45;;;;;;;7.25;4.00;;;8.60;99.90;;;;;;5031446;28;20045;-68
2024/03/23 00:04:12;;;;;;;6.03;4.22;;;8.50;99.90;;;;;;5030444;28;20466;-69
2024/03/23 00:06:39;;;;;;;8.90;4.38;;;8.50;99.90;;;;;;5029333;28;20037;-68
2024/03/23 00:09:07;;;;;;;7.10;3.70;;;8.50;99.90;;;;;;5025316;28;20033;-67
2024/03/23 00:11:36;;;;;;;7.82;3.55;;;8.50;99.90;;;;;;5031061;28;20408;-68
2024/03/23 00:14:03;;;;;;;5.87;3.27;;;8.50;99.90;;;;;;5031292;28;20025;-68
2024/03/23 00:16:30;;;;;;;5.07;3.22;;;8.50;99.90;;;;;;5021903;28;20615;-68
2024/03/23 00:18:57;;;;;;;6.03;2.70;;;8.40;99.90;;;;;;5031146;28;20033;-68
2024/03/23 00:21:24;;;;;;;5.18;2.75;;;8.40;99.90;;;;;;5029039;28;20029;-68
2024/03/23 00:23:50;;;;;;;5.80;3.08;;;8.40;99.90;;;;;;5030681;28;20351;-68
2024/03/23 00:26:17;;;;;;;7.82;4.18;;;8.40;99.90;;;;;;5029937;28;20029;-67
2024/03/23 00:28:44;;;;;;;4.50;3.08;;;8.40;99.90;;;;;;5030816;28;20033;-67
2024/03/23 00:31:10;;;;;;;5.50;2.20;;;8.40;99.90;;;;;;5029805;28;20029;-68
2024/03/23 00:33:37;;;;;;;4.43;2.65;;;8.50;99.90;;;;;;5030264;28;20029;-68
2024/03/23 00:36:03;;;;;;;7.53;2.97;;;8.60;99.90;;;;;;5028867;28;20033;-69
2024/03/23 00:38:30;;;;;;;7.18;3.17;;;8.60;99.90;;;;;;5030648;28;20044;-68
2024/03/23 00:40:58;;;;;;;6.60;3.67;;;8.70;99.90;;;;;;5010428;28;20866;-68
2024/03/23 00:43:26;;;;;;;4.55;3.00;;;8.70;99.90;;;;;;5026655;28;20025;-68
2024/03/23 00:45:52;;;;;;;8.20;4.35;;;8.70;99.90;;;;;;5029537;28;20418;-68
2024/03/23 00:48:19;;;;;;;7.05;4.53;;;8.60;99.90;;;;;;5029820;28;20036;-68
2024/03/23 00:50:45;;;;;;;10.70;4.82;;;8.50;99.90;;;;;;5029451;28;20022;-68
2024/03/23 00:53:11;;;;;;;14.02;6.97;;;8.40;99.90;;;;;;5029989;28;20033;-68
2024/03/23 00:55:36;;;;;;;9.15;5.35;;;8.40;99.90;;;;;;5028802;28;20025;-68
2024/03/23 00:58:02;;;;;;;7.28;3.75;;;8.40;99.90;;;;;;5029555;28;20425;-68
2024/03/23 01:00:28;;;;;;;5.93;3.20;;;8.50;99.90;;;;;;5030205;28;20079;-69
2024/03/23 01:02:53;;;;;;;6.35;3.20;;;8.60;99.90;;;;;;5029593;28;20024;-66
2024/03/23 01:05:19;;;;;;;5.20;2.40;;;8.80;99.90;;;;;;5032856;28;20025;-67
2024/03/23 01:07:44;;;;;;;4.32;2.10;;;9.10;99.90;;;;;;5024399;28;20040;-68
2024/03/23 01:10:10;;;;;;;4.05;2.20;;;9.40;99.90;;;;;;5021179;28;20032;-68
2024/03/23 01:12:35;;;;;;;2.28;1.75;;;9.70;99.90;;;;;;5023402;28;20390;-67
2024/03/23 01:15:01;;;;;;;3.60;2.00;;;10.00;99.90;;;;;;5027982;28;20017;-68
2024/03/23 01:17:27;;;;;;;3.55;2.15;;;10.20;99.90;;;;;;5021298;28;20467;-68
2024/03/23 01:19:52;;;;;;;3.78;1.63;;;10.40;99.90;;;;;;5023968;28;20057;-68
2024/03/23 01:22:18;;;;;;;3.42;1.90;;;10.70;99.90;;;;;;5023206;28;20176;-68
2024/03/23 01:24:43;;;;;;;5.10;2.28;;;10.90;99.90;;;;;;5022371;28;20064;-68
2024/03/23 01:27:09;;;;;;;5.20;1.92;;;11.00;99.90;;;;;;5029347;28;20088;-68
2024/03/23 01:29:35;;;;;;;4.00;2.25;;;11.20;99.90;;;;;;5030755;28;20036;-67
2024/03/23 01:32:01;;;;;;;2.00;1.77;;;11.30;99.90;;;;;;5029525;28;20021;-68
2024/03/23 01:34:27;;;;;;;2.25;1.73;;;11.30;99.90;;;;;;5026318;28;20367;-68
2024/03/23 01:36:53;;;;;;;3.65;2.20;;;11.50;99.90;;;;;;5030133;28;20025;-68
2024/03/23 01:39:19;;;;;;;4.47;2.00;;;11.60;99.90;;;;;;5030852;28;20036;-68
2024/03/23 01:41:44;;;;;;;3.95;1.85;;;11.80;99.90;;;;;;5030775;28;20459;-67
2024/03/23 01:44:10;;;;;;;3.65;1.70;;;11.90;99.90;;;;;;5029178;28;20162;-67
2024/03/23 01:46:37;;;;;;;3.28;2.05;;;11.90;99.90;;;;;;5030058;28;20022;-67
2024/03/23 01:49:04;;;;;;;5.00;2.20;;;12.00;99.90;;;;;;5029590;28;20402;-67
2024/03/23 01:51:30;;;;;;;6.50;2.20;;;12.10;99.90;;;;;;5030187;28;20485;-66
2024/03/23 01:53:57;;;;;;;4.07;1.88;;;12.10;99.90;;;;;;5030136;28;20030;-67
2024/03/23 01:56:22;;;;;;;3.33;1.80;;;12.10;99.90;;;;;;5028355;28;20597;-67
2024/03/23 01:58:48;;;;;;;3.58;1.80;;;12.10;99.90;;;;;;5029869;28;20037;-67
2024/03/23 02:01:14;;;;;;;3.78;2.10;;;12.20;99.90;;;;;;5019871;28;20030;-67
2024/03/23 02:03:39;;;;;;;4.38;1.90;;;12.20;99.90;;;;;;5030493;28;20410;-67
2024/03/23 02:06:07;;;;;;;4.97;2.03;;;12.10;99.90;;;;;;5028975;28;20056;-67
2024/03/23 02:08:33;;;;;;;3.53;2.03;;;12.10;99.90;;;;;;5029784;28;20034;-67
2024/03/23 02:10:59;;;;;;;4.20;2.38;;;12.10;99.90;;;;;;5029315;28;20033;-68
2024/03/23 02:13:24;;;;;;;4.30;2.45;;;12.10;99.90;;;;;;5031546;28;20025;-67
2024/03/23 02:15:50;;;;;;;4.90;2.30;;;12.10;99.90;;;;;;5029826;28;20457;-68
2024/03/23 02:18:15;;;;;;;3.08;1.98;;;12.00;99.90;;;;;;5029319;28;20033;-67
2024/03/23 02:20:41;;;;;;;4.72;2.30;;;12.10;99.90;;;;;;5029167;28;20022;-68
2024/03/23 02:23:16;;;;;;;4.43;2.40;;;12.10;99.90;;;;;;5028634;28;20087;-67
2024/03/23 02:25:42;;;;;;;2.70;2.15;;;12.00;99.90;;;;;;5029413;28;20026;-67
2024/03/23 02:28:08;;;;;;;4.30;2.17;;;11.90;99.90;;;;;;5029230;28;20037;-67
2024/03/23 02:30:33;;;;;;;3.38;1.95;;;11.90;99.90;;;;;;5032031;28;20052;-67
2024/03/23 02:32:59;;;;;;;4.63;2.40;;;11.80;99.90;;;;;;5033420;28;20028;-67
2024/03/23 02:35:25;;;;;;;2.88;1.92;;;11.80;99.90;;;;;;5032544;28;20184;-67
2024/03/23 02:37:50;;;;;;;7.32;2.60;;;11.80;99.90;;;;;;5033526;28;20491;-67
2024/03/23 02:40:16;;;;;;;8.05;2.58;;;11.90;99.90;;;;;;5041734;28;20025;-67
2024/03/23 02:42:42;;;;;;;4.65;1.90;;;11.90;99.90;;;;;;5033751;28;20025;-67
2024/03/23 02:45:08;;;;;;;3.67;2.22;;;11.90;99.90;;;;;;5031836;28;20053;-68
2024/03/23 02:47:34;;;;;;;4.50;2.40;;;11.90;99.90;;;;;;5033430;28;20111;-67
2024/03/23 02:50:00;;;;;;;2.97;2.15;;;11.80;99.90;;;;;;5033029;28;20029;-67
2024/03/23 02:52:25;;;;;;;5.07;2.30;;;11.80;99.90;;;;;;5014670;28;20037;-67
2024/03/23 02:54:51;;;;;;;3.60;2.15;;;11.80;99.90;;;;;;5033455;28;20478;-67
2024/03/23 02:57:17;;;;;;;4.85;2.28;;;11.70;99.90;;;;;;5031811;28;20116;-67
2024/03/23 02:59:42;;;;;;;4.97;2.75;;;11.60;99.90;;;;;;5032922;28;20040;-67
2024/03/23 03:02:08;;;;;;;3.65;2.90;;;11.60;99.90;;;;;;5032040;28;20402;-67
2024/03/23 03:04:34;;;;;;;5.13;2.75;;;11.70;99.90;;;;;;5033045;28;20025;-67
2024/03/23 03:07:00;;;;;;;4.88;2.10;;;11.70;99.90;;;;;;5032387;28;20045;-67
2024/03/23 03:09:26;;;;;;;5.40;2.47;;;11.60;99.90;;;;;;5025947;28;20030;-67
2024/03/23 03:11:52;;;;;;;3.90;2.10;;;11.60;99.90;;;;;;5032267;28;20079;-67
2024/03/23 03:14:17;;;;;;;6.30;2.17;;;11.60;99.90;;;;;;5032479;28;20026;-67
2024/03/23 03:16:43;;;;;;;3.40;2.20;;;11.60;99.90;;;;;;5032163;28;20356;-67
2024/03/23 03:19:10;;;;;;;2.85;1.90;;;11.60;99.90;;;;;;5032223;28;20038;-67
2024/03/23 03:21:36;;;;;;;6.55;2.15;;;11.70;99.90;;;;;;5031413;28;20040;-67
2024/03/23 03:24:02;;;;;;;2.28;2.08;;;11.60;99.90;;;;;;5031983;28;20037;-67
2024/03/23 03:26:27;;;;;;;5.03;2.15;;;11.60;99.90;;;;;;5031707;28;20041;-67
2024/03/23 03:28:53;;;;;;;3.88;2.05;;;11.60;99.90;;;;;;5032690;28;20032;-67
2024/03/23 03:31:18;;;;;;;3.95;2.00;;;11.70;99.90;;;;;;5031295;28;20041;-67
2024/03/23 03:33:44;;;;;;;4.70;2.35;;;11.70;99.90;;;;;;5032850;28;20347;-67
2024/03/23 03:36:10;;;;;;;4.13;2.10;;;11.60;99.90;;;;;;5031036;28;20025;-67
2024/03/23 03:38:36;;;;;;;5.10;2.40;;;11.60;99.90;;;;;;5032348;28;20041;-67
2024/03/23 03:41:02;;;;;;;3.28;2.17;;;11.60;99.90;;;;;;5041178;28;20017;-68
2024/03/23 03:43:28;;;;;;;4.28;2.33;;;11.60;99.90;;;;;;5032055;28;20033;-68
2024/03/23 03:45:54;;;;;;;4.35;2.00;;;11.50;99.90;;;;;;5031368;28;20050;-67
2024/03/23 03:48:20;;;;;;;8.07;2.70;;;11.50;99.90;;;;;;5031659;28;20243;-68
2024/03/23 03:50:46;;;;;;;4.10;2.20;;;11.40;99.90;;;;;;5031390;28;20024;-68
2024/03/23 03:53:11;;;;;;;2.92;2.03;;;11.40;99.90;;;;;;5031193;28;20083;-67
2024/03/23 03:55:37;;;;;;;4.65;2.78;;;11.30;99.90;;;;;;5031147;28;20395;-67
2024/03/23 03:58:04;;;;;;;2.80;2.25;;;11.30;99.90;;;;;;5031484;28;20045;-67
2024/03/23 04:00:30;;;;;;;4.38;2.25;;;11.20;99.90;;;;;;5031428;28;20030;-68
2024/03/23 04:02:56;;;;;;;4.38;2.53;;;11.10;99.90;;;;;;5031659;28;20021;-68
2024/03/23 04:05:22;;;;;;;4.45;2.60;;;11.00;99.90;;;;;;5028356;28;20044;-68
2024/03/23 04:07:48;;;;;;;5.32;2.20;;;10.90;99.90;;;;;;5028808;28;20029;-67
2024/03/23 04:10:13;;;;;;;4.28;2.65;;;10.90;99.90;;;;;;5029090;28;20164;-67
2024/03/23 04:12:40;;;;;;;3.55;2.05;;;10.80;99.90;;;;;;5031148;28;20060;-67
2024/03/23 04:15:06;;;;;;;3.30;2.40;;;10.80;99.90;;;;;;5022144;28;20443;-68
2024/03/23 04:17:32;;;;;;;5.95;2.45;;;10.70;99.90;;;;;;5031884;28;20052;-67
2024/03/23 04:19:58;;;;;;;3.88;2.28;;;10.70;99.90;;;;;;5031449;28;20033;-68
2024/03/23 04:22:26;;;;;;;3.53;2.42;;;10.60;99.90;;;;;;5029436;28;20038;-67
2024/03/23 04:24:53;;;;;;;4.30;2.40;;;10.70;99.90;;;;;;5030657;28;20030;-67
2024/03/23 04:27:19;;;;;;;4.72;2.50;;;10.70;99.90;;;;;;5030393;28;20037;-67
2024/03/23 04:29:48;;;;;;;2.30;1.90;;;10.80;99.90;;;;;;5030981;28;20025;-67
2024/03/23 04:32:14;;;;;;;5.80;2.33;;;10.80;99.90;;;;;;5030320;28;20092;-67
2024/03/23 04:34:41;;;;;;;5.63;2.55;;;10.80;99.90;;;;;;5030944;28;20053;-69
2024/03/23 04:37:07;;;;;;;4.72;2.13;;;10.90;99.90;;;;;;5030128;28;20128;-68
2024/03/23 04:39:33;;;;;;;4.45;2.05;;;11.10;99.90;;;;;;5034109;28;20534;-68
2024/03/23 04:41:59;;;;;;;3.38;2.53;;;11.30;99.90;;;;;;5037000;28;20030;-68
2024/03/23 04:44:24;;;;;;;6.15;2.30;;;11.50;99.90;;;;;;5030109;28;20149;-68
2024/03/23 04:46:50;;;;;;;3.65;2.53;;;11.40;99.90;;;;;;5029796;28;20033;-68
2024/03/23 04:49:16;;;;;;;4.10;3.03;;;11.50;99.90;;;;;;5030265;28;20071;-68
2024/03/23 04:51:45;;;;;;;2.90;2.22;;;11.50;99.90;;;;;;5030005;28;20095;-68
2024/03/23 04:54:14;;;;;;;4.53;2.60;;;11.40;99.90;;;;;;5030091;28;20038;-68
2024/03/23 04:56:40;;;;;;;5.72;3.83;;;11.30;99.90;;;;;;5030146;28;20084;-68
2024/03/23 04:59:05;;;;;;;10.27;4.78;;;11.40;99.90;;;;;;5030241;28;20540;-69
2024/03/23 05:01:34;;;;;;;8.18;4.63;;;11.30;99.90;;;;;;5030410;28;20128;-68
2024/03/23 05:04:01;;;;;;;11.27;6.63;;;11.20;99.90;;;;;;5030289;28;20025;-69
2024/03/23 05:06:27;;;;;;;12.02;6.40;;;11.00;99.90;;;;;;5029847;28;20036;-68
2024/03/23 05:08:52;;;;;;;8.23;6.82;;;10.70;99.90;;;;;;5030452;28;20100;-68
2024/03/23 05:11:18;;;;;;;10.23;7.60;;;10.40;99.90;;;;;;5029652;28;20029;-68
2024/03/23 05:13:44;;;;;;;18.08;9.10;;;10.10;99.90;;;;;;5034956;28;20096;-68
2024/03/23 05:16:09;;;;;;;14.05;8.25;;;10.00;99.90;;;;;;5034023;28;20029;-68
2024/03/23 05:18:35;;;;;;;14.27;9.27;;;9.80;99.90;;;;;;5030566;28;20486;-68
2024/03/23 05:21:01;;;;;;;16.92;10.15;;;9.80;99.90;;;;;;5029133;28;20025;-68
2024/03/23 05:23:29;;;;;;;17.70;11.30;;;9.60;99.90;;;;;;5029598;28;20021;-68
2024/03/23 05:25:55;;;;;;;18.88;12.50;;;9.70;99.90;;;;;;5029999;28;20029;-68
2024/03/23 05:28:22;;;;;;;19.85;12.95;;;9.70;99.90;;;;;;5029707;28;20025;-69
2024/03/23 05:30:54;;;;;;;22.83;13.73;;;9.60;99.90;;;;;;5028484;28;20034;-68
2024/03/23 05:33:21;;;;;;;22.05;14.32;;;9.60;99.90;;;;;;5029753;28;20083;-68
2024/03/23 05:35:47;;;;;;;20.20;14.48;;;9.50;99.90;;;;;;5026529;28;20030;-68
2024/03/23 05:38:13;;;;;;;24.23;14.88;;;9.40;99.90;;;;;;5028972;28;20555;-68
2024/03/23 05:40:40;;;;;;;21.17;14.60;;;9.40;99.90;;;;;;5039825;28;20074;-68
2024/03/23 05:43:09;;;;;;;23.25;15.10;;;9.40;99.90;;;;;;5021547;28;20028;-68
2024/03/23 05:45:34;;;;;;;24.30;15.77;;;9.30;99.90;;;;;;5028959;28;20399;-68
2024/03/23 05:48:00;;;;;;;21.90;15.65;;;9.20;99.90;;;;;;5030167;28;20095;-69
2024/03/23 05:50:25;;;;;;;22.60;15.77;;;9.10;99.90;;;;;;5029074;28;20074;-68
2024/03/23 05:52:51;;;;;;;23.15;15.48;;;9.20;99.90;;;;;;5030102;28;20021;-68
2024/03/23 05:55:17;;;;;;;25.35;15.07;;;9.20;99.90;;;;;;5028463;28;20041;-68
2024/03/23 05:57:43;;;;;;;21.90;14.68;;;9.20;99.90;;;;;;5030333;28;20026;-68
2024/03/23 06:00:17;;;;;;;17.50;11.23;;;9.10;99.90;;;;;;5028707;28;20036;-69
2024/03/23 06:02:46;;;;;;;17.90;11.45;;;9.10;99.90;;;;;;5030046;28;20033;-68
2024/03/23 06:05:12;;;;;;;12.13;8.10;;;9.00;99.90;;;;;;5032882;28;20478;-68
2024/03/23 06:07:38;;;;;;;12.05;8.27;;;9.00;99.90;;;;;;5033868;28;20160;-68
2024/03/23 06:10:05;;;;;;;11.40;6.53;;;8.80;99.90;;;;;;5028779;28;20371;-69
2024/03/23 06:12:31;;;;;;;11.57;6.85;;;8.70;99.90;;;;;;5027456;28;20018;-68
2024/03/23 06:14:56;;;;;;;8.32;5.57;;;8.70;99.90;;;;;;5026080;28;20028;-68
2024/03/23 06:17:22;;;;;;;9.57;5.53;;;8.70;99.90;;;;;;5021950;28;20026;-68
2024/03/23 06:19:48;;;;;;;7.25;4.97;;;8.60;99.90;;;;;;5032473;28;20045;-68
2024/03/23 06:22:14;;;;;;;6.93;5.05;;;8.70;99.90;;;;;;5031777;28;20038;-68
2024/03/23 06:24:40;;;;;;;8.55;4.70;;;8.60;99.90;;;;;;5033405;28;20018;-68
2024/03/23 06:27:05;;;;;;;6.78;3.97;;;8.70;99.90;;;;;;5031135;28;20021;-68
2024/03/23 06:29:32;;;;;;;5.15;3.47;;;8.70;99.90;;;;;;5033639;28;20029;-68
2024/03/23 06:31:58;;;;;;;4.85;3.20;;;8.60;99.90;;;;;;5026476;28;20649;-68
2024/03/23 06:34:23;;;;;;;4.05;2.72;;;8.50;99.90;;;;;;5032487;28;20116;-68
2024/03/23 06:36:49;;;;;;;4.45;2.53;;;;;;;;;;5029161;28;20029;-68
2024/03/23 06:39:18;;;;;;;3.60;2.00;;;;;;;;;;5029782;28;20037;-68
2024/03/23 06:41:52;;;;;;;2.38;1.77;;;;;;;;;;5031383;28;20170;-68
2024/03/23 06:44:18;;;;;;;1.67;1.40;;;;;;;;;;5030569;28;20049;-68
2024/03/23 06:46:44;;;;;;;2.03;1.60;;;;;;;;;;5031456;28;20060;-68
2024/03/23 06:49:10;;;;;;;3.28;1.55;;;;;;;;;;5028156;28;20382;-68
2024/03/23 06:51:37;;;;;;;1.75;1.15;;;;;;;;;;5031883;28;20379;-68
2024/03/23 06:54:03;;;;;;;0.93;0.60;;;;;;;;;;5031723;28;20096;-68
2024/03/23 06:56:29;;;;;;;0.80;0.60;;;;;;;;;;5037442;28;20135;-68
2024/03/23 06:58:55;;;;;;;2.60;0.60;;;;;;;;;;5032779;28;20029;-68
2024/03/23 07:01:21;;;;;;;0.55;0.50;;;;;;;;;;5031118;28;20021;-69
2024/03/23 07:03:47;;;;;;;0.68;0.38;;;;;;;;;;5032406;28;20079;-68
2024/03/23 07:06:13;;;;;;;0.32;0.30;;;;;;;;;;5031194;28;20374;-69
2024/03/23 07:08:41;;;;;;;1.13;0.30;;;;;;;;;;5032156;28;20033;-69
2024/03/23 07:11:07;;;;;;;0.50;0.40;;;;;;;;;;5025383;28;20028;-69
2024/03/23 07:13:33;;;;;;;0.35;0.10;;;;;;;;;;5028970;28;20017;-69
2024/03/23 07:15:59;;;;;;;0.63;0.40;;;;;;;;;;5019221;28;20493;-70
2024/03/23 07:18:26;;;;;;;0.20;0.10;;;;;;;;;;5017733;28;20029;-69
2024/03/23 07:20:58;;;;;;;0.20;0.20;;;;;;;;;;5028512;28;20048;-69
2024/03/23 07:23:25;;;;;;;0.28;0.22;;;;;;;;;;5030983;28;20026;-71
2024/03/23 07:25:57;;;;;;;1.02;0.40;;;;;;;;;;5030745;28;20017;-69
2024/03/23 07:28:23;;;;;;;0.20;0.20;;;;;;;;;;5025122;28;20034;-68
2024/03/23 07:31:00;;;;;;;0.10;0.10;;;;;;;;;;5024585;28;20032;-69
2024/03/23 07:33:26;;;;;;;0.20;0.20;;;;;;;;;;5024695;28;20111;-71
2024/03/23 07:35:53;;;;;;;0.50;0.20;;;;;;;;;;5023859;28;20057;-68
2024/03/23 07:38:19;;;;;;;0.10;0.10;;;;;;;;;;5030292;28;20521;-67
2024/03/23 07:40:46;;;;;;;0.20;0.20;;;;;;;;;;5027967;28;20033;-72
2024/03/23 07:43:12;;;;;;;0.65;0.20;;;;;;;;;;5028059;28;20029;-69
2024/03/23 07:45:38;;;;;;;0.30;0.30;;;;;;;;;;5026915;28;20053;-69
2024/03/23 07:48:04;;;;;;;0.55;0.30;;;;;;;;;;5024675;28;20147;-70
2024/03/23 07:50:30;;;;;;;0.30;0.20;;;;;;;;;;5030101;28;20470;-68
2024/03/23 07:52:56;;;;;;;0.52;0.30;;;;;;;;;;5028178;28;20029;-68
2024/03/23 07:55:22;;;;;;;0.43;0.30;;;;;;;;;;5029277;28;20434;-67
2024/03/23 07:57:48;;;;;;;1.33;0.35;;;;;;;;;;5024867;28;20141;-68
2024/03/23 08:00:14;;;;;;;0.30;0.30;;;;;;;;;;5019805;28;20132;-67
2024/03/23 08:02:40;;;;;;;0.32;0.30;;;;;;;;;;5025975;28;20025;-67
2024/03/23 08:05:07;;;;;;;0.52;0.45;;;;;;;;;;5022281;28;20034;-69
2024/03/23 08:07:33;;;;;;;1.85;0.50;;;;;;;;;;5021560;28;20534;-70
2024/03/23 08:10:01;;;;;;;1.20;0.52;;;;;;;;;;5023001;28;20032;-69
2024/03/23 08:12:27;;;;;;;1.00;0.60;;;;;;;;;;5025853;28;20017;-69
2024/03/23 08:14:53;;;;;;;0.60;0.50;;;;;;;;;;5029814;28;20020;-69
2024/03/23 08:17:19;;;;;;;0.95;0.80;;;;;;;;;;5025080;28;20100;-68
2024/03/23 08:19:44;;;;;;;0.50;0.50;;;;;;;;;;5031409;28;20474;-69
2024/03/23 08:22:10;;;;;;;0.57;0.55;;;;;;;;;;5018736;28;20037;-68
2024/03/23 08:24:36;;;;;;;0.70;0.70;;;;;;;;;;5030128;28;20025;-67
2024/03/23 08:27:04;;;;;;;2.30;0.60;;;;;;;;;;5028233;28;20379;-70
2024/03/23 08:29:30;;;;;;;0.98;0.52;;;;;;;;;;5020912;28;20490;-70
2024/03/23 08:31:56;;;;;;;0.88;0.88;;;;;;;;;;5034699;28;20088;-67
2024/03/23 08:34:22;;;;;;;0.63;0.63;;;;;;;;;;5033426;28;20021;-68
2024/03/23 08:36:48;;;;;;;1.85;0.70;;;;;;;;;;5030486;28;20497;-68
2024/03/23 08:39:14;;;;;;;2.25;0.32;;;;;;;;;;5030704;28;20029;-67
2024/03/23 08:41:42;;;;;;;0.60;0.40;;;;;;;;;;5033409;28;20374;-67
2024/03/23 08:44:08;;;;;;;0.50;0.50;;;;;;;;;;5028315;28;20018;-69
2024/03/23 08:46:34;;;;;;;0.50;0.50;;;;;;;;;;5030232;28;20025;-66
2024/03/23 08:49:00;;;;;;;1.05;0.50;;;;;;;;;;5031572;28;20025;-68
2024/03/23 08:51:26;;;;;;;0.30;0.30;;;;;;;;;;5030230;28;20021;-68
2024/03/23 08:53:52;;;;;;;0.90;0.65;;;;;;;;;;5026972;28;20450;-68
2024/03/23 08:56:19;;;;;;;0.60;0.60;;;;;;;;;;5025817;28;20033;-68
2024/03/23 08:58:45;;;;;;;1.38;0.60;;;;;;;;;;5030535;28;20025;-70
2024/03/23 09:01:15;;;;;;;1.35;0.68;;;;;;;;;;5019419;28;20040;-69
2024/03/23 09:03:41;;;;;;;1.27;0.80;;;;;;;;;;5028661;28;20022;-69
2024/03/23 09:06:11;;;;;;;9.88;1.10;;;;;;;;;;5028132;28;20022;-68
2024/03/23 09:08:37;;;;;;;5.13;1.77;;;;;;;;;;5025483;28;20064;-70
2024/03/23 09:11:07;;;;;;;7.13;1.67;;;;;;;;;;5023688;28;20036;-73
2024/03/23 09:13:34;;;;;;;2.38;1.10;;;;;;;;;;5027390;28;20016;-68
2024/03/23 09:16:00;;;;;;;4.57;0.90;;;;;;;;;;5019999;28;20037;-68
2024/03/23 09:18:26;;;;;;;4.55;1.33;;;;;;;;;;5025895;28;20029;-69
2024/03/23 09:20:54;;;;;;;5.80;1.50;;;;;;;;;;5021005;28;20024;-69
2024/03/23 09:23:20;;;;;;;6.40;2.92;;;;;;;;;;5021057;28;20441;-67
2024/03/23 09:25:46;;;;;;;8.02;1.75;;;;;;;;;;5022100;28;20067;-68
2024/03/23 09:28:12;;;;;;;2.95;1.80;;;;;;;;;;5023332;28;20037;-67
2024/03/23 09:30:42;;;;;;;3.30;2.28;;;;;;;;;;5022645;28;20028;-69
2024/03/23 09:33:08;;;;;;;4.40;1.92;;;;;;;;;;5024471;28;20021;-70
2024/03/23 09:35:37;;;;;;;5.95;2.58;;;;;;;;;;5025150;28;20049;-69
2024/03/23 09:38:03;;;;;;;6.05;2.20;;;;;;;;;;5024001;28;20088;-69
2024/03/23 09:40:29;;;;;;;6.55;2.17;;;;;;;;;;5030294;28;20144;-67
2024/03/23 09:42:55;;;;;;;10.50;2.95;;;;;;;;;;5028246;28;20025;-67
2024/03/23 09:45:30;;;;;;;5.38;2.47;;;;;;;;;;5028826;28;20477;-67
2024/03/23 09:47:56;;;;;;;6.30;2.28;;;;;;;;;;5036984;28;20024;-67
2024/03/23 09:50:22;;;;;;;7.60;2.42;;;;;;;;;;5035734;28;20055;-67
2024/03/23 09:52:49;;;;;;;5.97;2.50;;;;;;;;;;5018015;28;20025;-68
2024/03/23 09:55:15;;;;;;;9.75;3.00;;;;;;;;;;5035821;28;20025;-68
2024/03/23 09:57:41;;;;;;;8.40;2.67;;;;;;;;;;5036952;28;20087;-68
2024/03/23 10:00:08;;;;;;;7.75;3.00;;;;;;;;;;5026842;28;20383;-67
2024/03/23 10:02:35;;;;;;;6.32;2.42;;;;;;;;;;5036409;28;20018;-68
2024/03/23 10:05:00;;;;;;;6.95;3.10;;;;;;;;;;5036083;28;20083;-67
2024/03/23 10:07:29;;;;;;;7.75;3.15;;;;;;;;;;5036314;28;20026;-69
2024/03/23 10:09:55;;;;;;;9.65;2.85;;;;;;;;;;5036580;28;20026;-69
2024/03/23 10:12:22;;;;;;;8.65;2.83;;;;;;;;;;5035557;28;20029;-69
2024/03/23 10:14:48;;;;;;;7.55;2.80;;;;;;;;;;5038153;28;20027;-69
2024/03/23 10:17:14;;;;;;;9.48;3.22;;;;;;;;;;5035268;28;20034;-69
2024/03/23 10:19:41;;;;;;;8.55;2.65;;;;;;;;;;5036865;28;20211;-69
2024/03/23 10:22:07;;;;;;;5.65;2.80;;;;;;;;;;5026901;28;20025;-68
2024/03/23 10:24:33;;;;;;;9.60;2.55;;;;;;;;;;5036211;28;20079;-68
2024/03/23 10:27:00;;;;;;;9.77;2.80;;;;;;;;;;5035096;28;20030;-69
2024/03/23 10:29:28;;;;;;;6.72;3.58;;;;;;;;;;5040432;28;20048;-70
2024/03/23 10:31:54;;;;;;;10.10;3.45;;;;;;;;;;5041312;28;20024;-69
2024/03/23 10:34:29;;;;;;;6.72;2.47;;;;;;;;;;5041489;28;20489;-69
2024/03/23 10:36:56;;;;;;;6.28;2.33;;;;;;;;;;5039217;28;20028;-69
2024/03/23 10:39:23;;;;;;;11.18;2.85;;;;;;;;;;5035481;28;20036;-68
2024/03/23 10:41:51;;;;;;;4.57;2.40;;;;;;;;;;5036164;28;20730;-68
2024/03/23 10:44:20;;;;;;;7.85;3.05;;;;;;;;;;5035883;28;20117;-69
2024/03/23 10:46:46;;;;;;;10.25;2.80;;;;;;;;;;5036250;28;20017;-70
2024/03/23 10:49:12;;;;;;;9.40;2.65;;;;;;;;;;5035577;28;20036;-69
2024/03/23 10:51:38;;;;;;;10.32;3.03;;;;;;;;;;5029873;28;20032;-69
2024/03/23 10:54:05;;;;;;;9.10;3.72;;;;;;;;;;5031929;28;20040;-71
2024/03/23 10:56:34;;;;;;;8.93;3.00;;;;;;;;;;5032763;28;20097;-69
2024/03/23 10:59:02;;;;;;;7.82;3.22;;;;;;;;;;5032824;28;20112;-70
2024/03/23 11:01:28;;;;;;;10.07;2.88;;;;;;;;;;5032923;28;20102;-70
2024/03/23 11:03:54;;;;;;;6.60;3.17;;;8.10;99.90;;;;;;5033462;28;20109;-70
2024/03/23 11:06:49;;;;;;;10.75;3.35;;;7.20;99.90;;;;;;5032294;28;20033;-69
2024/03/23 11:09:40;;;;;;;7.43;3.38;;;7.00;99.90;;;;;;5008047;28;20083;-68
2024/03/23 11:12:31;;;;;;;4.93;2.47;;;6.70;99.90;;;;;;5026461;28;20056;-68
2024/03/23 11:15:11;;;;;;;10.27;2.90;;;6.30;99.90;;;;;;5042694;28;20024;-69
2024/03/23 11:17:37;;;;;;;5.00;1.80;;;6.20;99.90;;;;;;5033190;28;20026;-70
2024/03/23 11:20:09;;;;;;;6.43;2.30;;;6.10;99.90;;;;;;5032207;28;20382;-68
2024/03/23 11:22:37;;;;;;;3.05;1.80;;;6.30;99.90;;;;;;5031989;28;20083;-69
2024/03/23 11:25:26;;;;;;;6.50;2.33;;;6.50;99.90;;;;;;5030711;28;20437;-69
2024/03/23 11:27:53;;;;;;;5.85;2.42;;;6.60;99.90;;;;;;5033049;28;20045;-68
2024/03/23 11:30:23;;;;;;;4.72;1.90;;;6.60;99.90;;;;;;5031466;28;20048;-71
2024/03/23 11:32:57;;;;;;;5.45;2.53;;;6.60;99.90;;;;;;5029504;28;20033;-73
2024/03/23 11:35:31;;;;;;;3.42;2.33;;;6.70;99.90;;;;;;5030951;28;20037;-71
2024/03/23 11:38:11;;;;;;;5.70;2.80;;;6.90;99.90;;;;;;5032573;28;20539;-73
2024/03/23 11:40:50;;;;;;;4.35;2.35;;;7.20;99.90;;;;;;5038904;28;20095;-75
2024/03/23 11:43:18;;;;;;;5.47;2.43;;;7.50;99.90;;;;;;5032394;28;20026;-71
2024/03/23 11:45:45;;;;;;;5.38;1.65;;;7.70;99.90;;;;;;5031332;28;20041;-72
2024/03/23 11:48:17;;;;;;;7.13;2.10;;;8.00;99.90;;;;;;5031782;28;20427;-72
2024/03/23 11:50:44;;;;;;;3.90;1.58;;;8.50;99.90;;;;;;5032127;28;20320;-72
2024/03/23 11:53:15;;;;;;;2.58;1.55;;;9.40;99.90;;;;;;5031745;28;20037;-75
2024/03/23 11:55:45;;;;;;;9.82;2.40;;;9.90;99.90;;;;;;5031523;28;20505;-71
2024/03/23 11:58:12;;;;;;;5.13;1.50;;;10.30;99.90;;;;;;5030276;28;20505;-74
2024/03/23 12:00:37;;;;;;;8.80;1.77;;;10.40;99.90;;;;;;5019170;28;20038;-74
2024/03/23 12:03:04;;;;;;;4.05;1.30;;;10.50;99.90;;;;;;5028215;28;20025;-73
2024/03/23 12:05:30;;;;;;;6.35;1.23;;;10.50;99.90;;;;;;5026796;28;20160;-74
2024/03/23 12:08:16;;;;;;;6.07;1.35;;;10.40;99.90;;;;;;5032012;28;20029;-74
2024/03/23 12:10:44;;;;;;;4.65;1.35;;;10.10;99.90;;;;;;5030775;28;20019;-73
2024/03/23 12:13:10;;;;;;;5.75;1.60;;;10.00;99.90;;;;;;5030969;28;20090;-72
2024/03/23 12:15:36;;;;;;;6.30;1.08;;;9.90;99.90;;;;;;5041047;28;20386;-73
2024/03/23 12:18:09;;;;;;;4.95;1.73;;;9.80;99.90;;;;;;5031262;28;20394;-73
2024/03/23 12:20:34;;;;;;;5.85;1.33;;;9.80;99.90;;;;;;5031511;28;20061;-77
2024/03/23 12:23:13;;;;;;;5.07;1.45;;;9.80;99.90;;;;;;5030675;28;20556;-75
2024/03/23 12:25:39;;;;;;;16.98;10.25;;;9.80;99.90;;;;;;5030985;28;20034;-76
2024/03/23 12:28:06;;;;;;;5.32;2.25;;;10.00;99.90;;;;;;5013532;28;20382;-73
2024/03/23 12:30:38;;;;;;;7.35;1.98;;;10.00;99.90;;;;;;5030893;28;20022;-71
2024/03/23 12:33:04;;;;;;;4.18;1.30;;;10.10;99.90;;;;;;5030592;28;20026;-74
2024/03/23 12:35:30;;;;;;;8.10;1.77;;;10.20;99.90;;;;;;5031129;28;20394;-74
2024/03/23 12:37:55;;;;;;;6.32;1.50;;;10.50;99.90;;;;;;5031569;28;20032;-70
2024/03/23 12:40:22;;;;;;;5.78;1.30;;;;;;;;;;5029991;28;20417;-72
2024/03/23 12:42:47;;;;;;;5.05;1.67;;;12.30;99.90;;;;;;5031577;28;20052;-73
2024/03/23 12:45:13;;;;;;;6.63;1.90;;;12.70;99.90;;;;;;5029824;28;20042;-73
2024/03/23 12:47:38;;;;;;;9.23;1.98;;;13.00;98.20;;;;;;5031290;28;20039;-72
2024/03/23 12:50:05;;;;;;;6.43;1.67;;;12.60;98.50;;;;;;5030416;28;20064;-73
2024/03/23 12:52:32;;;;;;;9.68;2.05;;;12.00;98.20;;;;;;5031107;28;20026;-69
2024/03/23 12:54:58;;;;;;;10.52;2.00;;;11.50;99.50;;;;;;5030723;28;20448;-69
2024/03/23 12:57:24;;;;;;;10.15;1.63;;;11.10;99.90;;;;;;5029452;28;20061;-71
2024/03/23 12:59:53;;;;;;;8.38;2.38;;;10.70;99.90;;;;;;5031004;28;20033;-73
2024/03/23 13:02:20;;;;;;;5.13;1.70;;;10.50;99.90;;;;;;5030222;28;20140;-71
2024/03/23 13:04:49;;;;;;;11.48;1.90;;;10.40;99.90;;;;;;5031730;28;20490;-76
2024/03/23 13:07:16;;;;;;;8.90;2.15;;;10.70;99.90;;;;;;5017817;28;20523;-73
2024/03/23 13:09:41;;;;;;;12.95;2.97;;;11.50;99.90;;;;;;5025856;28;20386;-72
2024/03/23 13:12:07;;;;;;;10.18;2.33;;;12.40;99.10;;;;;;5029565;28;20087;-71
2024/03/23 13:14:33;;;;;;;8.32;2.00;;;12.90;99.20;;;;;;5039839;28;20099;-71
2024/03/23 13:16:59;;;;;;;5.93;1.88;;;13.10;97.80;;;;;;5030101;28;20029;-69
2024/03/23 13:19:26;;;;;;;8.05;1.80;;;12.90;97.70;;;;;;5030628;28;20370;-70
2024/03/23 13:21:54;;;;;;;10.85;2.00;;;13.10;97.30;;;;;;5030450;28;20136;-70